Etusivu
METAR-TAF:

METAR-TAF

Lentoasemat :

Independence Municipal Airport

Independence, Iowa, Yhdysvallat

Leveyspiiri: 42-27N, Pituuspiiri: 091-56W, korkeus merenpinnasta: 298 m

Tämänhetkinen sää

Tämä raportti tehtiin 18 minuuttia sitten, kello 19.15 UTC
Tuuli 3 kn lännestä/lounaasta
Lämpötila 5°C
Kosteus 60%
Ilmanpaine 1027 hPa
Näkyvyys: 16.1 km
selkeää

METAR: KIIB 251915Z AUTO 25003KT 10SM CLR 05/M02 A3033 RMK AO2 T00471018

Aika: 13:33 (19:33 UTC)


TAF: puuttuu

Säähavainnot ja -ennusteet yli 4000 lentoasemalta (METAR- ja TAF-raportit).

Käytössä olevat sääasemat on merkitty karttaan keltaisilla ja punaisilla pisteillä.

Aseta hiiri pisteen päälle nähdäksesi sääaseman nimen.

Klikkaa sitten nähdäksesi säähavainnot ja -ennusteet.

Kartan vaihtaminen: klikkaa mustalla rastilla varustettuja vihreitä pisteitä, niin voit zoomata sisään; viivalla varustettua vihreää pistettä, niin voit zoomata ulos tai vihreitä nuolia, niin pääset viereisille kartoille.


METAR-TAF: